Time;durP1;ratioP1;P1;durP2;ratioP2;P2;SDS_P1;SDS_P2;PMS_P1;PMS_P2;Temp;Humidity;BMP_temperature;BMP_pressure;BME280_temperature;BME280_humidity;BME280_pressure;Samples;Min_cycle;Max_cycle;Signal;HPM_P1;HPM_P2
2022/08/08 05:00:10;;;;;;;1.60;1.50;;;18.70;97.20;;;;;;1735036;28;20223;-75
2022/08/08 05:01:01;;;;;;;1.77;1.60;;;18.70;97.20;;;;;;1734557;28;20231;-74
2022/08/08 05:01:53;;;;;;;1.80;1.60;;;18.70;97.20;;;;;;1734770;28;20196;-74
2022/08/08 05:02:44;;;;;;;1.33;1.23;;;18.70;97.20;;;;;;1734838;28;20196;-74
2022/08/08 05:03:36;;;;;;;1.83;1.73;;;18.70;97.20;;;;;;1734780;28;20307;-75
2022/08/08 05:04:27;;;;;;;1.65;1.40;;;18.70;97.20;;;;;;1734890;28;20204;-74
2022/08/08 05:05:18;;;;;;;1.50;1.40;;;18.80;97.20;;;;;;1734841;28;20231;-74
2022/08/08 05:06:09;;;;;;;1.35;1.25;;;18.80;97.20;;;;;;1734787;28;20442;-75
2022/08/08 05:07:01;;;;;;;1.97;1.50;;;18.80;97.20;;;;;;1739496;28;20271;-74
2022/08/08 05:07:52;;;;;;;2.60;1.73;;;18.80;97.20;;;;;;1741611;28;20686;-74
2022/08/08 05:08:43;;;;;;;2.77;1.80;;;18.80;97.20;;;;;;1741893;28;20198;-74
2022/08/08 05:09:35;;;;;;;1.55;1.42;;;18.80;97.20;;;;;;1741727;28;20191;-73
2022/08/08 05:10:28;;;;;;;1.30;1.10;;;18.80;97.20;;;;;;1741785;28;20210;-73
2022/08/08 05:11:20;;;;;;;1.73;1.63;;;18.80;97.20;;;;;;1741770;28;20549;-74
2022/08/08 05:12:11;;;;;;;2.10;1.50;;;18.80;97.20;;;;;;1741577;28;20203;-73
2022/08/08 05:13:02;;;;;;;2.60;1.93;;;18.80;97.20;;;;;;1741723;28;20290;-73
2022/08/08 05:13:54;;;;;;;2.58;1.23;;;18.80;97.20;;;;;;1741670;28;20670;-73
2022/08/08 05:14:45;;;;;;;3.47;1.80;;;18.80;97.20;;;;;;1740205;28;20203;-73
2022/08/08 05:15:38;;;;;;;1.77;1.67;;;18.90;97.20;;;;;;1734752;28;20615;-73
2022/08/08 05:16:30;;;;;;;1.77;1.30;;;18.90;97.20;;;;;;1734711;28;20659;-73
2022/08/08 05:17:20;;;;;;;1.60;1.50;;;18.90;97.20;;;;;;1735562;28;20211;-73
2022/08/08 05:18:12;;;;;;;1.33;1.23;;;18.90;97.20;;;;;;1740888;28;20748;-74
2022/08/08 05:19:03;;;;;;;2.28;1.42;;;18.90;97.20;;;;;;1739206;28;20199;-73
2022/08/08 05:19:55;;;;;;;2.95;1.83;;;18.90;97.20;;;;;;1734604;28;20659;-74
2022/08/08 05:20:46;;;;;;;2.33;1.50;;;18.90;97.20;;;;;;1734726;28;20338;-73
2022/08/08 05:21:39;;;;;;;1.77;1.60;;;18.90;97.20;;;;;;1734716;28;20257;-74
2022/08/08 05:22:30;;;;;;;2.58;1.65;;;18.90;97.20;;;;;;1734795;28;20215;-74
2022/08/08 05:23:22;;;;;;;1.97;1.50;;;19.00;97.20;;;;;;1734549;28;20275;-73
2022/08/08 05:24:13;;;;;;;1.48;1.35;;;19.00;97.20;;;;;;1734680;28;20207;-74
2022/08/08 05:25:06;;;;;;;2.17;1.80;;;19.00;97.20;;;;;;1734785;28;20234;-74
2022/08/08 05:25:57;;;;;;;1.85;1.75;;;19.00;97.20;;;;;;1734620;28;20211;-73
2022/08/08 05:26:48;;;;;;;2.03;1.40;;;19.00;97.20;;;;;;1734381;28;20195;-74
2022/08/08 05:27:39;;;;;;;1.90;1.70;;;19.10;97.20;;;;;;1734657;28;20200;-73
2022/08/08 05:28:31;;;;;;;1.80;1.70;;;19.10;97.20;;;;;;1734606;28;20215;-73
2022/08/08 05:29:22;;;;;;;2.67;1.40;;;19.10;97.20;;;;;;1736859;28;20211;-73
2022/08/08 05:30:14;;;;;;;1.47;1.37;;;19.10;97.20;;;;;;1739321;28;20294;-73
2022/08/08 05:31:06;;;;;;;2.60;1.45;;;19.20;97.20;;;;;;1734476;28;20470;-74
2022/08/08 05:31:58;;;;;;;1.40;1.30;;;19.20;97.20;;;;;;1734671;28;20211;-74
2022/08/08 05:32:49;;;;;;;2.00;1.73;;;19.20;97.20;;;;;;1734681;28;20682;-74
2022/08/08 05:33:41;;;;;;;3.00;1.80;;;19.20;97.20;;;;;;1734618;28;20211;-74
2022/08/08 05:34:34;;;;;;;2.20;2.00;;;19.20;97.20;;;;;;1734635;28;20666;-74
2022/08/08 05:35:27;;;;;;;1.75;1.65;;;19.20;97.20;;;;;;1734650;28;20291;-74
2022/08/08 05:36:23;;;;;;;1.95;1.85;;;19.30;97.20;;;;;;1734524;28;20207;-74
2022/08/08 05:37:18;;;;;;;1.95;1.55;;;19.30;97.20;;;;;;1733968;28;20663;-74
2022/08/08 05:38:14;;;;;;;4.75;2.13;;;19.30;97.20;;;;;;1734071;28;20573;-74
2022/08/08 05:39:05;;;;;;;2.20;2.00;;;19.40;97.20;;;;;;1734682;28;20211;-74
2022/08/08 05:40:00;;;;;;;1.77;1.65;;;19.40;97.20;;;;;;1735339;28;20226;-74
2022/08/08 05:40:52;;;;;;;2.50;2.30;;;19.40;97.20;;;;;;1734515;28;20224;-74
2022/08/08 05:41:45;;;;;;;4.90;1.70;;;19.40;97.20;;;;;;1734607;28;20200;-74
2022/08/08 05:42:40;;;;;;;2.00;1.63;;;19.40;97.20;;;;;;1734638;28;20204;-75
2022/08/08 05:43:33;;;;;;;2.08;1.80;;;19.40;97.20;;;;;;1734486;28;20192;-74
2022/08/08 05:44:28;;;;;;;2.45;1.92;;;19.50;97.20;;;;;;1734595;28;20294;-74
2022/08/08 05:45:20;;;;;;;1.88;1.67;;;19.50;97.20;;;;;;1734614;28;20598;-74
2022/08/08 05:46:13;;;;;;;2.60;1.70;;;19.50;97.20;;;;;;1734529;28;20231;-74
2022/08/08 05:47:05;;;;;;;3.22;2.10;;;19.50;97.20;;;;;;1734344;28;20314;-74
2022/08/08 05:47:56;;;;;;;1.60;1.50;;;19.50;97.20;;;;;;1734452;28;20208;-74
2022/08/08 05:48:48;;;;;;;2.73;1.97;;;19.60;97.20;;;;;;1734618;28;20224;-74
2022/08/08 05:49:40;;;;;;;3.67;2.00;;;19.60;97.20;;;;;;1738134;28;20450;-74
2022/08/08 05:50:32;;;;;;;2.10;1.90;;;19.60;97.20;;;;;;1741195;28;20199;-74
2022/08/08 05:51:24;;;;;;;2.85;1.90;;;19.60;97.20;;;;;;1741483;28;20210;-74
2022/08/08 05:52:17;;;;;;;2.22;1.92;;;19.60;97.20;;;;;;1741340;28;20681;-74
2022/08/08 05:53:08;;;;;;;3.65;2.03;;;19.60;97.20;;;;;;1741385;28;20214;-74
2022/08/08 05:54:01;;;;;;;8.07;3.63;;;19.60;97.20;;;;;;1741444;28;20199;-74
2022/08/08 05:54:51;;;;;;;3.33;2.08;;;19.70;97.20;;;;;;1741362;28;20575;-73
2022/08/08 05:55:45;;;;;;;3.20;2.03;;;19.70;97.20;;;;;;1741391;28;20294;-74
2022/08/08 05:56:37;;;;;;;3.20;2.10;;;19.70;97.20;;;;;;1740965;28;20214;-74
2022/08/08 05:57:32;;;;;;;4.40;1.70;;;19.70;97.20;;;;;;1741348;28;20203;-73
2022/08/08 05:58:27;;;;;;;13.05;2.33;;;19.70;97.20;;;;;;1741425;28;20203;-73
2022/08/08 05:59:20;;;;;;;3.40;2.50;;;19.80;97.20;;;;;;1740292;28;20731;-73
2022/08/08 06:00:11;;;;;;;6.07;2.40;;;19.80;97.20;;;;;;1739758;28;20207;-75
2022/08/08 06:01:03;;;;;;;5.97;2.00;;;19.80;97.20;;;;;;1734418;28;20220;-74
2022/08/08 06:01:57;;;;;;;9.18;2.20;;;19.80;97.20;;;;;;1734395;28;20207;-73
2022/08/08 06:04:02;;;;;;;7.20;2.55;;;19.90;97.20;;;;;;1734496;28;20226;-74
2022/08/08 06:04:58;;;;;;;4.82;2.65;;;19.90;97.20;;;;;;1734516;28;20567;-75
2022/08/08 06:05:51;;;;;;;3.85;2.08;;;19.90;97.20;;;;;;1734489;28;20196;-75
2022/08/08 06:06:42;;;;;;;3.13;2.70;;;19.90;97.20;;;;;;1734116;28;20229;-73
2022/08/08 06:07:35;;;;;;;3.07;2.77;;;20.00;97.20;;;;;;1734498;28;20203;-75
2022/08/08 06:08:28;;;;;;;3.92;2.38;;;20.00;97.20;;;;;;1733019;28;20208;-74
2022/08/08 06:09:27;;;;;;;3.00;2.80;;;20.00;97.20;;;;;;1734678;28;20609;-75
2022/08/08 06:10:20;;;;;;;4.40;2.85;;;20.10;97.20;;;;;;1736513;28;20254;-74
2022/08/08 06:11:11;;;;;;;3.65;2.70;;;20.10;97.20;;;;;;1732697;28;20231;-74
2022/08/08 06:12:05;;;;;;;3.07;2.37;;;20.10;97.20;;;;;;1735647;28;20200;-74
2022/08/08 06:12:56;;;;;;;3.75;2.55;;;20.10;97.20;;;;;;1737558;28;20574;-74
2022/08/08 06:13:50;;;;;;;3.03;2.73;;;20.10;97.20;;;;;;1737339;28;20559;-74
2022/08/08 06:14:42;;;;;;;2.95;2.50;;;20.20;97.20;;;;;;1739683;28;20441;-75
2022/08/08 06:15:36;;;;;;;2.92;2.63;;;20.20;97.20;;;;;;1734044;28;20261;-74
2022/08/08 06:16:28;;;;;;;5.05;3.20;;;20.20;97.20;;;;;;1734299;28;20200;-73
2022/08/08 06:17:21;;;;;;;3.47;2.95;;;20.30;97.20;;;;;;1733891;28;20200;-74
2022/08/08 06:18:14;;;;;;;5.43;2.92;;;20.30;97.20;;;;;;1734223;28;20689;-74
2022/08/08 06:19:05;;;;;;;3.33;2.58;;;20.30;97.20;;;;;;1733747;28;20207;-74
2022/08/08 06:19:58;;;;;;;5.23;3.17;;;20.30;97.20;;;;;;1739684;28;20287;-74
2022/08/08 06:20:51;;;;;;;3.47;3.17;;;20.40;97.20;;;;;;1740964;28;20461;-74
2022/08/08 06:21:47;;;;;;;3.25;2.65;;;20.40;97.20;;;;;;1740969;28;20197;-76
2022/08/08 06:22:39;;;;;;;4.70;2.60;;;20.40;97.20;;;;;;1741068;28;20203;-73
2022/08/08 06:23:30;;;;;;;3.33;2.65;;;20.50;97.20;;;;;;1741012;28;20211;-74
2022/08/08 06:24:21;;;;;;;5.18;3.10;;;20.50;97.20;;;;;;1740878;28;20226;-75
2022/08/08 06:25:13;;;;;;;3.60;2.70;;;20.50;97.20;;;;;;1740924;28;20230;-73
2022/08/08 06:26:06;;;;;;;9.30;3.05;;;20.60;97.20;;;;;;1741041;28;20195;-74
2022/08/08 06:27:09;;;;;;;3.90;2.75;;;20.60;97.20;;;;;;1740664;28;20206;-73
2022/08/08 06:28:03;;;;;;;3.65;2.85;;;20.60;97.20;;;;;;1740877;28;20567;-73
2022/08/08 06:29:08;;;;;;;3.20;2.90;;;20.70;97.20;;;;;;1740890;28;20207;-76
2022/08/08 06:30:03;;;;;;;3.08;2.75;;;20.70;97.20;;;;;;1734692;28;20196;-76
2022/08/08 06:30:59;;;;;;;3.72;2.80;;;20.70;97.20;;;;;;1733952;28;20220;-73
2022/08/08 06:31:56;;;;;;;4.40;3.00;;;20.70;97.20;;;;;;1734140;28;20204;-74
2022/08/08 06:32:55;;;;;;;5.68;2.83;;;20.80;97.20;;;;;;1734152;28;20200;-74
2022/08/08 06:33:58;;;;;;;4.63;2.92;;;20.80;97.20;;;;;;1733809;28;20234;-76
2022/08/08 06:34:52;;;;;;;4.88;2.90;;;20.80;97.20;;;;;;1733201;28;20202;-74
2022/08/08 06:35:45;;;;;;;3.88;2.88;;;20.80;97.20;;;;;;1734060;28;20766;-73
2022/08/08 06:36:40;;;;;;;6.03;2.95;;;20.80;97.20;;;;;;1733665;28;20206;-74
2022/08/08 06:37:35;;;;;;;4.18;2.65;;;20.80;97.20;;;;;;1734052;28;20693;-73
2022/08/08 06:38:30;;;;;;;3.92;2.70;;;20.80;97.20;;;;;;1733957;28;20243;-74
2022/08/08 06:39:23;;;;;;;4.40;2.67;;;20.80;97.20;;;;;;1734331;28;20216;-73
2022/08/08 06:40:16;;;;;;;6.85;3.33;;;20.80;97.20;;;;;;1733482;28;20210;-74
2022/08/08 06:41:11;;;;;;;3.60;2.90;;;20.80;97.20;;;;;;1733476;28;20294;-74
2022/08/08 06:42:03;;;;;;;6.40;2.85;;;20.80;97.20;;;;;;1738888;28;20210;-74
2022/08/08 06:42:59;;;;;;;2.97;2.63;;;20.80;97.20;;;;;;1740977;28;20206;-75
2022/08/08 06:43:56;;;;;;;8.13;2.95;;;20.80;97.20;;;;;;1741184;28;20255;-73
2022/08/08 06:44:49;;;;;;;5.82;3.53;;;20.80;97.20;;;;;;1740942;28;20210;-74
2022/08/08 06:45:42;;;;;;;5.57;3.38;;;20.80;97.20;;;;;;1740848;28;20195;-75
2022/08/08 06:46:33;;;;;;;3.20;2.90;;;20.80;97.20;;;;;;1740586;28;20555;-74
2022/08/08 06:47:25;;;;;;;3.80;2.90;;;20.80;97.20;;;;;;1740965;28;20278;-73
2022/08/08 06:48:17;;;;;;;5.88;2.80;;;20.80;97.20;;;;;;1740714;28;20946;-73
2022/08/08 06:49:09;;;;;;;4.45;2.90;;;20.90;97.20;;;;;;1740475;28;20211;-75
2022/08/08 06:50:00;;;;;;;4.90;3.33;;;20.90;97.20;;;;;;1734950;28;20207;-74
2022/08/08 06:50:53;;;;;;;5.60;2.83;;;20.90;97.20;;;;;;1733807;28;20228;-74
2022/08/08 06:51:44;;;;;;;6.25;2.60;;;20.90;97.20;;;;;;1734052;28;20237;-73
2022/08/08 06:52:36;;;;;;;7.15;3.00;;;21.00;97.20;;;;;;1734048;28;20234;-74
2022/08/08 06:53:27;;;;;;;7.30;3.15;;;21.00;97.20;;;;;;1734016;28;20206;-74
2022/08/08 06:54:20;;;;;;;9.48;3.65;;;21.00;97.20;;;;;;1733931;28;20198;-74
2022/08/08 06:55:11;;;;;;;8.73;2.90;;;21.10;97.20;;;;;;1734022;28;20286;-74
2022/08/08 06:56:03;;;;;;;5.90;2.63;;;21.10;97.20;;;;;;1733947;28;20652;-74
2022/08/08 06:56:54;;;;;;;4.32;2.60;;;21.10;97.20;;;;;;1733625;28;20212;-75
2022/08/08 06:57:47;;;;;;;4.50;3.05;;;21.10;97.20;;;;;;1733136;28;20204;-76
2022/08/08 06:58:38;;;;;;;5.03;3.10;;;21.10;97.20;;;;;;1731770;28;20196;-75
2022/08/08 06:59:33;;;;;;;7.50;3.13;;;21.20;97.20;;;;;;1733903;28;20295;-75
2022/08/08 07:00:24;;;;;;;11.57;4.05;;;21.20;97.20;;;;;;1732065;28;20204;-75
2022/08/08 07:01:17;;;;;;;5.85;3.00;;;21.20;97.20;;;;;;1739884;28;20694;-75
2022/08/08 07:02:19;;;;;;;3.85;2.85;;;21.20;97.20;;;;;;1735601;28;20200;-75
2022/08/08 07:03:18;;;;;;;8.23;3.00;;;21.20;97.20;;;;;;1739320;28;20203;-76
2022/08/08 07:04:18;;;;;;;9.02;3.35;;;21.20;97.20;;;;;;1740821;28;20207;-75
2022/08/08 07:05:17;;;;;;;5.15;3.13;;;21.20;97.20;;;;;;1740880;28;20210;-76
2022/08/08 07:06:09;;;;;;;8.88;3.25;;;21.30;97.20;;;;;;1740964;28;20214;-76
2022/08/08 07:07:04;;;;;;;5.65;3.05;;;21.30;97.20;;;;;;1740630;28;20199;-75
2022/08/08 07:08:01;;;;;;;9.57;3.25;;;21.30;97.20;;;;;;1739304;28;20678;-75
2022/08/08 07:08:57;;;;;;;5.80;3.05;;;21.40;97.20;;;;;;1734001;28;20196;-75
2022/08/08 07:09:54;;;;;;;8.40;2.97;;;21.40;97.20;;;;;;1733986;28;20579;-75
2022/08/08 07:10:50;;;;;;;8.52;3.35;;;21.40;97.20;;;;;;1733938;28;20203;-74
2022/08/08 07:11:41;;;;;;;4.88;2.90;;;21.50;97.20;;;;;;1733875;28;20869;-74
2022/08/08 07:12:40;;;;;;;7.63;3.22;;;21.50;97.20;;;;;;1733957;28;20230;-74
2022/08/08 07:13:37;;;;;;;8.40;3.35;;;21.60;97.20;;;;;;1733878;28;20207;-74
2022/08/08 07:14:39;;;;;;;9.90;3.60;;;21.60;97.20;;;;;;1733897;28;20266;-74
2022/08/08 07:15:35;;;;;;;7.43;2.50;;;21.70;97.20;;;;;;1733946;28;20242;-74
2022/08/08 07:16:38;;;;;;;4.35;2.88;;;21.70;97.20;;;;;;1733883;28;20200;-74
2022/08/08 07:17:35;;;;;;;9.30;2.90;;;21.80;97.20;;;;;;1733927;28;20212;-74
2022/08/08 07:18:37;;;;;;;5.57;2.83;;;21.80;97.20;;;;;;1739496;28;20195;-74
2022/08/08 07:19:39;;;;;;;5.47;2.95;;;21.90;97.20;;;;;;1740758;28;20218;-74
2022/08/08 07:20:35;;;;;;;7.10;3.70;;;22.00;97.20;;;;;;1740708;28;20698;-74
2022/08/08 07:21:32;;;;;;;6.85;3.20;;;22.00;97.20;;;;;;1740803;28;20210;-74
2022/08/08 07:22:32;;;;;;;6.35;3.42;;;22.00;97.20;;;;;;1740709;28;20286;-74
2022/08/08 07:23:31;;;;;;;4.43;3.00;;;22.00;97.20;;;;;;1740785;28;20214;-75
2022/08/08 07:24:28;;;;;;;3.30;3.00;;;22.10;97.20;;;;;;1740656;28;20203;-74
2022/08/08 07:25:20;;;;;;;8.32;3.00;;;22.10;97.20;;;;;;1740818;28;20210;-74
2022/08/08 07:26:15;;;;;;;11.80;3.60;;;22.10;97.20;;;;;;1740686;28;20647;-74
2022/08/08 07:27:10;;;;;;;10.00;3.13;;;22.10;97.20;;;;;;1740548;28;20203;-74
2022/08/08 07:28:08;;;;;;;5.45;2.60;;;22.20;97.20;;;;;;1738084;28;20203;-75
2022/08/08 07:29:01;;;;;;;16.67;3.65;;;22.20;97.20;;;;;;1733797;28;20790;-74
2022/08/08 07:29:53;;;;;;;10.25;2.63;;;22.20;97.20;;;;;;1733895;28;20209;-75
2022/08/08 07:30:44;;;;;;;5.82;2.75;;;22.30;97.20;;;;;;1733776;28;20199;-74
2022/08/08 07:31:35;;;;;;;6.63;2.70;;;22.30;97.20;;;;;;1733507;28;20204;-75
2022/08/08 07:32:27;;;;;;;10.32;3.22;;;22.30;97.20;;;;;;1733918;28;20215;-74
2022/08/08 07:33:18;;;;;;;4.10;2.95;;;22.40;97.20;;;;;;1733777;28;20206;-75
2022/08/08 07:34:11;;;;;;;4.35;2.75;;;22.40;97.20;;;;;;1733812;28;20283;-74
2022/08/08 07:35:05;;;;;;;6.95;2.83;;;22.50;97.20;;;;;;1733571;28;20200;-75
2022/08/08 07:35:59;;;;;;;4.63;2.70;;;22.50;97.20;;;;;;1733075;28;20204;-74
2022/08/08 07:36:51;;;;;;;8.07;3.05;;;22.60;97.20;;;;;;1733213;28;20261;-75
2022/08/08 07:37:44;;;;;;;5.18;2.90;;;22.60;97.20;;;;;;1733610;28;20208;-75
2022/08/08 07:38:36;;;;;;;4.93;2.60;;;22.60;97.20;;;;;;1734628;28;20885;-74
2022/08/08 07:39:30;;;;;;;5.10;2.90;;;22.70;97.20;;;;;;1733092;28;20200;-74
2022/08/08 07:40:23;;;;;;;7.38;2.70;;;22.70;97.20;;;;;;1733390;28;20204;-74
2022/08/08 07:41:19;;;;;;;12.95;3.60;;;22.80;97.20;;;;;;1733734;28;20219;-74
2022/08/08 07:42:11;;;;;;;7.13;3.55;;;22.80;97.20;;;;;;1733307;28;20215;-75
2022/08/08 07:43:05;;;;;;;4.15;2.97;;;22.90;97.20;;;;;;1733428;28;20640;-74
2022/08/08 07:43:58;;;;;;;6.00;3.13;;;22.90;97.20;;;;;;1733842;28;20196;-74
2022/08/08 07:44:50;;;;;;;3.80;2.72;;;22.90;97.20;;;;;;1733052;28;20251;-73
2022/08/08 07:45:43;;;;;;;6.70;3.15;;;23.00;97.20;;;;;;1738609;28;20191;-74
2022/08/08 07:46:35;;;;;;;9.07;2.72;;;23.00;97.20;;;;;;1740335;28;20199;-75
2022/08/08 07:47:26;;;;;;;6.68;3.47;;;23.10;97.20;;;;;;1740800;28;20210;-75
2022/08/08 07:48:18;;;;;;;7.80;3.73;;;23.10;97.20;;;;;;1740608;28;20278;-74
2022/08/08 07:49:12;;;;;;;8.68;2.95;;;23.20;97.20;;;;;;1740803;28;20214;-74
2022/08/08 07:50:05;;;;;;;14.60;3.35;;;23.20;97.20;;;;;;1740740;28;20199;-74
2022/08/08 07:50:59;;;;;;;9.57;3.15;;;23.30;97.20;;;;;;1740562;28;20227;-74
2022/08/08 07:51:50;;;;;;;10.57;3.13;;;23.30;97.20;;;;;;1740842;28;20651;-74
2022/08/08 07:52:47;;;;;;;8.77;2.87;;;23.30;97.20;;;;;;1740757;28;20595;-74
2022/08/08 07:53:43;;;;;;;3.10;2.80;;;23.40;97.20;;;;;;1740719;28;20529;-75
2022/08/08 07:54:41;;;;;;;7.22;3.20;;;23.40;97.20;;;;;;1740785;28;20199;-74
2022/08/08 07:55:32;;;;;;;3.95;3.00;;;23.40;97.20;;;;;;1736879;28;20670;-74
2022/08/08 07:56:31;;;;;;;3.85;2.80;;;23.50;97.20;;;;;;1733823;28;20569;-74
2022/08/08 07:57:28;;;;;;;5.15;3.20;;;23.50;97.20;;;;;;1733812;28;20208;-74
2022/08/08 07:58:26;;;;;;;3.72;2.70;;;23.60;97.20;;;;;;1733720;28;20231;-74
2022/08/08 07:59:20;;;;;;;8.18;3.10;;;23.60;97.20;;;;;;1733860;28;20574;-74
2022/08/08 08:00:14;;;;;;;6.47;3.20;;;23.70;97.20;;;;;;1733856;28;20290;-74
2022/08/08 08:01:09;;;;;;;3.80;3.28;;;23.70;97.20;;;;;;1734441;28;20562;-74
2022/08/08 08:02:04;;;;;;;5.82;3.53;;;23.70;97.20;;;;;;1735078;28;20287;-75
2022/08/08 08:03:03;;;;;;;3.95;3.50;;;23.70;97.20;;;;;;1735132;28;20203;-75
2022/08/08 08:03:59;;;;;;;4.97;2.95;;;23.70;97.20;;;;;;1735112;28;20282;-74
2022/08/08 08:04:54;;;;;;;4.70;3.10;;;23.70;97.20;;;;;;1735078;28;20713;-73
2022/08/08 08:05:51;;;;;;;7.55;3.20;;;23.80;97.20;;;;;;1739829;28;20196;-74
2022/08/08 08:06:42;;;;;;;7.53;2.97;;;23.80;97.20;;;;;;1741737;28;20199;-74
2022/08/08 08:07:34;;;;;;;6.85;3.30;;;23.80;97.20;;;;;;1741940;28;20654;-74
2022/08/08 08:08:32;;;;;;;9.68;2.92;;;23.80;97.20;;;;;;1741932;28;20214;-74
2022/08/08 08:09:27;;;;;;;6.40;3.10;;;23.90;97.20;;;;;;1742076;28;20215;-74
2022/08/08 08:10:18;;;;;;;4.03;3.10;;;23.90;97.20;;;;;;1741949;28;20230;-74
2022/08/08 08:11:13;;;;;;;4.50;3.00;;;23.90;97.20;;;;;;1741956;28;20736;-73
2022/08/08 08:12:05;;;;;;;4.45;2.83;;;23.90;97.20;;;;;;1741953;28;20694;-74
2022/08/08 08:13:19;;;;;;;9.68;3.33;;;23.90;97.20;;;;;;1741884;28;20286;-74
2022/08/08 08:14:14;;;;;;;2.40;2.08;;;23.90;97.20;;;;;;1742008;28;20210;-74
2022/08/08 08:15:06;;;;;;;3.95;2.70;;;24.00;97.20;;;;;;1742504;28;20202;-74
2022/08/08 08:16:02;;;;;;;7.53;2.95;;;24.00;97.20;;;;;;1735900;28;20269;-74
2022/08/08 08:16:52;;;;;;;5.82;2.90;;;24.00;97.20;;;;;;1734812;28;20234;-74
2022/08/08 08:17:46;;;;;;;4.63;2.60;;;24.00;97.20;;;;;;1735028;28;20203;-74
2022/08/08 08:18:40;;;;;;;3.38;2.78;;;24.10;97.20;;;;;;1734936;28;20693;-75
2022/08/08 08:19:32;;;;;;;5.38;2.88;;;24.10;97.20;;;;;;1735052;28;20663;-74
2022/08/08 08:20:26;;;;;;;4.32;2.60;;;24.00;97.20;;;;;;1735081;28;20204;-74
2022/08/08 08:21:20;;;;;;;5.18;2.15;;;24.10;97.20;;;;;;1734838;28;20258;-74
2022/08/08 08:22:11;;;;;;;3.97;2.60;;;24.10;97.20;;;;;;1734942;28;20215;-74
2022/08/08 08:23:03;;;;;;;3.87;2.47;;;24.10;97.20;;;;;;1735050;28;20282;-74
2022/08/08 08:23:54;;;;;;;2.40;2.20;;;24.10;97.20;;;;;;1734971;28;20438;-74
2022/08/08 08:24:45;;;;;;;5.00;2.37;;;24.10;97.20;;;;;;1735062;28;20286;-74
2022/08/08 08:25:36;;;;;;;3.38;2.70;;;24.20;97.20;;;;;;1737187;28;20204;-74
2022/08/08 08:26:28;;;;;;;2.80;2.30;;;24.20;97.20;;;;;;1741940;28;20933;-75
2022/08/08 08:27:20;;;;;;;3.80;2.92;;;24.20;97.20;;;;;;1741451;28;20199;-74
2022/08/08 08:28:12;;;;;;;2.50;2.30;;;24.10;97.20;;;;;;1741775;28;20561;-74
2022/08/08 08:29:03;;;;;;;4.78;2.75;;;24.10;97.20;;;;;;1742139;28;20698;-75
2022/08/08 08:29:55;;;;;;;3.03;2.58;;;24.10;97.20;;;;;;1741827;28;20726;-74
2022/08/08 08:30:46;;;;;;;2.80;2.60;;;24.20;97.20;;;;;;1741824;28;20577;-74
2022/08/08 08:31:38;;;;;;;6.13;2.90;;;24.10;97.20;;;;;;1741700;28;20659;-74
2022/08/08 08:32:30;;;;;;;3.65;2.70;;;24.20;97.20;;;;;;1741750;28;20510;-75
2022/08/08 08:33:22;;;;;;;3.20;2.90;;;24.20;97.20;;;;;;1741916;28;20199;-75
2022/08/08 08:34:13;;;;;;;3.00;2.22;;;24.20;97.20;;;;;;1741824;28;20210;-74
2022/08/08 08:35:06;;;;;;;3.13;2.60;;;24.30;97.20;;;;;;1741885;28;20219;-74
2022/08/08 08:35:57;;;;;;;4.47;2.50;;;24.30;97.20;;;;;;1736376;28;20581;-74
2022/08/08 08:36:50;;;;;;;3.30;2.63;;;24.30;97.20;;;;;;1737790;28;20195;-75
2022/08/08 08:37:41;;;;;;;4.63;2.97;;;24.40;97.20;;;;;;1741838;28;20438;-74
2022/08/08 08:38:33;;;;;;;3.50;2.30;;;24.40;97.20;;;;;;1741388;28;20234;-75
2022/08/08 08:39:24;;;;;;;3.33;3.03;;;24.40;97.20;;;;;;1741998;28;20203;-75
2022/08/08 08:40:16;;;;;;;3.53;2.33;;;24.50;97.20;;;;;;1741770;28;20658;-74
2022/08/08 08:41:10;;;;;;;3.20;2.45;;;24.50;97.20;;;;;;1741763;28;20568;-74
2022/08/08 08:42:03;;;;;;;4.10;2.70;;;24.50;97.20;;;;;;1741735;28;20317;-75
2022/08/08 08:42:54;;;;;;;3.10;2.90;;;24.50;97.20;;;;;;1741784;28;20218;-75
2022/08/08 08:43:48;;;;;;;3.83;2.55;;;24.50;97.20;;;;;;1741971;28;20719;-74
2022/08/08 08:44:40;;;;;;;4.43;2.97;;;24.50;97.20;;;;;;1741887;28;20206;-74
2022/08/08 08:45:33;;;;;;;4.68;3.10;;;24.50;97.20;;;;;;1740402;28;20211;-73
2022/08/08 08:46:26;;;;;;;4.65;3.00;;;24.50;97.20;;;;;;1734975;28;20203;-74
2022/08/08 08:47:19;;;;;;;3.05;2.75;;;24.60;97.20;;;;;;1734586;28;20226;-73
2022/08/08 08:48:10;;;;;;;3.92;3.00;;;24.60;97.20;;;;;;1734842;28;20215;-77
2022/08/08 08:49:02;;;;;;;3.60;3.30;;;24.60;97.20;;;;;;1734862;28;20204;-76
2022/08/08 08:49:53;;;;;;;4.72;3.20;;;24.70;97.20;;;;;;1734899;28;20299;-75
2022/08/08 08:50:49;;;;;;;7.70;3.53;;;24.70;97.20;;;;;;1734816;28;20597;-77
2022/08/08 08:51:42;;;;;;;7.78;3.47;;;24.70;97.20;;;;;;1734841;28;20568;-76
2022/08/08 08:52:36;;;;;;;11.20;3.20;;;24.80;97.20;;;;;;1734951;28;20215;-76
2022/08/08 08:53:30;;;;;;;3.80;2.55;;;24.80;97.20;;;;;;1734937;28;20199;-76
2022/08/08 08:54:23;;;;;;;3.72;3.30;;;24.90;97.20;;;;;;1734845;28;20685;-76
2022/08/08 08:55:17;;;;;;;3.10;2.85;;;25.00;97.20;;;;;;1734885;28;20196;-76
2022/08/08 08:56:11;;;;;;;7.47;3.13;;;25.00;97.20;;;;;;1740677;28;20210;-77
2022/08/08 08:57:05;;;;;;;4.32;3.08;;;25.00;97.20;;;;;;1741469;28;20446;-77
2022/08/08 08:57:58;;;;;;;7.47;3.10;;;25.10;97.20;;;;;;1741723;28;20890;-77
2022/08/08 08:58:51;;;;;;;5.10;3.70;;;25.10;97.20;;;;;;1738416;28;20195;-77
2022/08/08 08:59:46;;;;;;;3.58;2.90;;;25.10;97.20;;;;;;1725707;28;20287;-76
2022/08/08 09:00:38;;;;;;;3.45;3.15;;;25.10;97.20;;;;;;1729534;28;20215;-77
2022/08/08 09:01:32;;;;;;;4.20;2.88;;;25.10;97.20;;;;;;1734739;28;20201;-76
2022/08/08 09:02:25;;;;;;;3.72;3.42;;;25.10;97.20;;;;;;1728061;28;20205;-76
2022/08/08 09:03:18;;;;;;;3.90;3.15;;;25.20;97.20;;;;;;1739127;28;20781;-77
2022/08/08 09:04:14;;;;;;;3.40;3.00;;;25.20;97.20;;;;;;1733925;28;20275;-76
2022/08/08 09:05:06;;;;;;;3.10;2.80;;;25.20;97.20;;;;;;1739411;28;20690;-76
2022/08/08 09:05:59;;;;;;;4.38;3.22;;;25.30;97.20;;;;;;1740160;28;20203;-77
2022/08/08 09:06:52;;;;;;;3.83;3.53;;;25.30;97.20;;;;;;1738712;28;20203;-76
2022/08/08 09:07:47;;;;;;;3.25;3.05;;;25.40;97.20;;;;;;1735931;28;20195;-77
2022/08/08 09:08:42;;;;;;;3.75;3.28;;;25.40;97.20;;;;;;1741069;28;20207;-74
2022/08/08 09:09:36;;;;;;;3.67;3.17;;;25.40;97.20;;;;;;1741680;28;20251;-74
2022/08/08 09:10:28;;;;;;;7.47;3.40;;;25.50;97.20;;;;;;1741786;28;20199;-75
2022/08/08 09:11:20;;;;;;;6.37;2.70;;;25.50;97.20;;;;;;1741594;28;20198;-74
2022/08/08 09:12:11;;;;;;;3.20;2.60;;;25.50;97.20;;;;;;1741539;28;20452;-76
2022/08/08 09:13:06;;;;;;;2.80;2.60;;;25.60;97.20;;;;;;1741811;28;20516;-75
2022/08/08 09:13:58;;;;;;;4.27;2.97;;;25.60;97.20;;;;;;1741036;28;20545;-76
2022/08/08 09:14:54;;;;;;;2.97;2.67;;;25.60;97.20;;;;;;1741708;28;20445;-75
2022/08/08 09:15:45;;;;;;;3.47;2.70;;;25.70;97.20;;;;;;1741695;28;20477;-75
2022/08/08 09:16:38;;;;;;;4.00;3.37;;;25.70;97.20;;;;;;1741546;28;20262;-75
2022/08/08 09:17:30;;;;;;;3.53;2.90;;;25.70;97.20;;;;;;1741655;28;20828;-76
2022/08/08 09:18:22;;;;;;;3.10;2.77;;;25.80;97.20;;;;;;1741594;28;20453;-75
2022/08/08 09:19:15;;;;;;;3.50;3.20;;;25.80;97.20;;;;;;1741521;28;20445;-74
2022/08/08 09:20:08;;;;;;;3.40;3.03;;;25.80;97.20;;;;;;1741597;28;20353;-74
2022/08/08 09:21:02;;;;;;;2.90;2.70;;;25.80;97.20;;;;;;1741750;28;20219;-75
2022/08/08 09:21:53;;;;;;;3.40;2.70;;;25.90;97.20;;;;;;1741794;28;20235;-75
2022/08/08 09:22:47;;;;;;;3.40;3.10;;;25.90;97.20;;;;;;1741503;28;20193;-75
2022/08/08 09:23:38;;;;;;;3.45;2.70;;;25.90;97.20;;;;;;1741528;28;20202;-75
2022/08/08 09:24:31;;;;;;;3.40;2.90;;;26.00;97.20;;;;;;1735746;28;20219;-75
2022/08/08 09:25:22;;;;;;;3.38;2.90;;;26.00;97.20;;;;;;1734763;28;20223;-75
2022/08/08 09:26:19;;;;;;;3.45;3.03;;;26.00;97.20;;;;;;1734680;28;20242;-76
2022/08/08 09:27:12;;;;;;;3.10;2.90;;;26.10;97.20;;;;;;1734647;28;20316;-74
2022/08/08 09:28:04;;;;;;;3.97;3.23;;;26.10;97.20;;;;;;1734682;28;20453;-75
2022/08/08 09:28:59;;;;;;;3.40;3.10;;;26.10;97.20;;;;;;1734870;28;20446;-76
2022/08/08 09:29:53;;;;;;;3.40;2.90;;;26.20;97.20;;;;;;1734930;28;20220;-75
2022/08/08 09:30:47;;;;;;;3.90;2.70;;;26.20;97.20;;;;;;1735858;28;20443;-75
2022/08/08 09:31:52;;;;;;;3.50;2.80;;;26.20;97.20;;;;;;1734574;28;20257;-75
2022/08/08 09:32:49;;;;;;;3.15;2.85;;;26.20;97.20;;;;;;1734798;28;20563;-76
2022/08/08 09:33:43;;;;;;;3.15;2.95;;;26.20;97.20;;;;;;1734745;28;20226;-75
2022/08/08 09:34:38;;;;;;;3.22;2.92;;;26.10;97.20;;;;;;1734661;28;20200;-74
2022/08/08 09:35:32;;;;;;;3.22;2.92;;;26.00;97.20;;;;;;1734630;28;20211;-75
2022/08/08 09:36:28;;;;;;;3.55;2.70;;;26.00;97.20;;;;;;1734576;28;20214;-74
2022/08/08 09:37:24;;;;;;;3.42;2.55;;;26.00;97.20;;;;;;1734375;28;20663;-74
2022/08/08 09:38:30;;;;;;;4.13;2.80;;;26.00;97.20;;;;;;1734494;28;20210;-75
2022/08/08 09:39:24;;;;;;;4.50;2.67;;;26.00;97.20;;;;;;1734564;28;20888;-75